createdAt,value
2019-05-14T00:01:42.254Z,95.77
2019-05-14T00:04:13.964Z,95.75
2019-05-14T00:06:45.926Z,95.12
2019-05-14T00:09:17.478Z,95.33
2019-05-14T00:11:51.249Z,95.16
2019-05-14T00:14:35.711Z,95.99
2019-05-14T00:16:55.717Z,94.98
2019-05-14T00:19:27.374Z,94.79
2019-05-14T00:21:59.132Z,95.23
2019-05-14T00:24:32.316Z,94.91
2019-05-14T00:27:04.084Z,95.33
2019-05-14T00:29:35.838Z,94.77
2019-05-14T00:32:07.797Z,94.96
2019-05-14T00:34:39.247Z,94.62
2019-05-14T00:37:11.681Z,94.67
2019-05-14T00:39:43.172Z,94.94
2019-05-14T00:42:14.734Z,94.63
2019-05-14T00:44:54.274Z,95.00
2019-05-14T00:47:21.618Z,95.51
2019-05-14T00:49:52.972Z,95.14
2019-05-14T00:52:24.975Z,95.24
2019-05-14T00:55:01.984Z,95.07
2019-05-14T00:57:31.607Z,94.83
2019-05-14T01:00:03.275Z,94.94
2019-05-14T01:02:35.165Z,94.11
2019-05-14T01:05:08.729Z,94.34
2019-05-14T01:07:42.088Z,95.00
2019-05-14T01:10:13.889Z,95.37
2019-05-14T01:12:45.540Z,95.28
2019-05-14T01:15:17.408Z,94.72
2019-05-14T01:17:48.965Z,94.32
2019-05-14T01:20:22.551Z,94.66
2019-05-14T01:22:54.315Z,94.21
2019-05-14T01:25:24.973Z,94.23
2019-05-14T01:27:56.084Z,95.07
2019-05-14T01:30:27.944Z,94.95
2019-05-14T01:33:01.785Z,94.47
2019-05-14T01:35:34.739Z,95.71
2019-05-14T01:38:06.287Z,95.24
2019-05-14T01:40:41.799Z,95.25
2019-05-14T01:43:13.799Z,95.61
2019-05-14T01:45:45.557Z,96.10
2019-05-14T01:48:17.008Z,96.41
2019-05-14T01:50:48.659Z,95.95
2019-05-14T01:53:22.044Z,95.49
2019-05-14T01:55:53.606Z,95.69
2019-05-14T01:58:25.378Z,96.42
2019-05-14T02:00:57.679Z,96.42
2019-05-14T02:03:29.391Z,95.99
2019-05-14T02:06:01.672Z,95.94
2019-05-14T02:08:33.326Z,95.53
2019-05-14T02:11:04.968Z,95.72
2019-05-14T02:13:36.729Z,95.41
2019-05-14T02:16:08.517Z,95.73
2019-05-14T02:18:41.624Z,95.31
2019-05-14T02:21:13.232Z,95.03
2019-05-14T02:23:44.682Z,94.48
2019-05-14T02:26:16.330Z,94.39
2019-05-14T02:28:48.110Z,94.16
2019-05-14T02:31:20.456Z,94.32
2019-05-14T02:33:52.048Z,93.65
2019-05-14T02:36:23.769Z,93.33
2019-05-14T02:38:55.634Z,92.48
2019-05-14T02:41:29.882Z,92.37
2019-05-14T02:44:00.686Z,92.29
2019-05-14T02:46:32.541Z,92.10
2019-05-14T02:49:04.306Z,91.47
2019-05-14T02:51:39.156Z,90.51
2019-05-14T02:54:10.386Z,90.19
2019-05-14T02:56:42.232Z,90.35
2019-05-14T02:59:14.195Z,89.59
2019-05-14T03:01:45.257Z,88.56
2019-05-14T03:04:19.513Z,87.99
2019-05-14T03:06:50.398Z,87.60
2019-05-14T03:09:22.246Z,86.85
2019-05-14T03:11:54.114Z,85.80
2019-05-14T03:14:26.073Z,82.30
2019-05-14T03:16:59.491Z,81.24
2019-05-14T03:19:31.978Z,79.87
2019-05-14T03:22:03.526Z,80.36
2019-05-14T03:24:35.459Z,80.37
2019-05-14T03:27:09.603Z,80.43
2019-05-14T03:29:40.579Z,81.14
2019-05-14T03:32:13.811Z,80.82
2019-05-14T03:34:45.528Z,82.45
2019-05-14T03:37:22.631Z,81.41
2019-05-14T03:39:50.919Z,83.39
2019-05-14T03:42:22.671Z,83.19
2019-05-14T03:44:54.741Z,83.25
2019-05-14T03:47:26.389Z,80.67
2019-05-14T03:49:58.977Z,81.52
2019-05-14T03:52:30.996Z,80.71
2019-05-14T03:55:04.834Z,79.47
2019-05-14T03:57:39.989Z,79.52
2019-05-14T04:00:10.973Z,79.99
2019-05-14T04:02:42.875Z,79.06
2019-05-14T04:05:18.646Z,79.87
2019-05-14T04:07:50.292Z,78.99
2019-05-14T04:10:23.909Z,77.46
2019-05-14T04:12:59.709Z,80.07
2019-05-14T04:15:31.605Z,80.59
2019-05-14T04:18:04.070Z,80.39
2019-05-14T04:20:39.244Z,80.13
2019-05-14T04:23:11.771Z,78.62
2019-05-14T04:25:43.435Z,77.71
2019-05-14T04:28:19.143Z,75.89
2019-05-14T04:30:55.348Z,76.82
2019-05-14T04:33:30.261Z,76.96
2019-05-14T04:36:00.607Z,79.13
2019-05-14T04:38:32.066Z,77.76
2019-05-14T04:41:04.126Z,75.00
2019-05-14T04:43:35.668Z,76.43
2019-05-14T04:46:10.477Z,75.17
2019-05-14T04:48:43.449Z,75.65
2019-05-14T04:51:14.117Z,74.37
2019-05-14T04:53:49.368Z,74.22
2019-05-14T04:56:21.325Z,74.26
2019-05-14T04:58:53.189Z,71.74
2019-05-14T05:01:25.190Z,71.82
2019-05-14T05:03:59.101Z,73.71
2019-05-14T05:06:30.708Z,73.45
2019-05-14T05:09:02.668Z,73.37
2019-05-14T05:11:34.628Z,72.87
2019-05-14T05:14:08.839Z,74.51
2019-05-14T05:16:39.441Z,72.57
2019-05-14T05:19:11.234Z,73.07
2019-05-14T05:21:42.989Z,71.37
2019-05-14T05:24:14.852Z,71.87
2019-05-14T05:26:48.563Z,73.21
2019-05-14T05:29:20.312Z,70.66
2019-05-14T05:31:51.870Z,70.92
2019-05-14T05:34:23.411Z,70.44
2019-05-14T05:36:55.180Z,70.15
2019-05-14T05:39:28.268Z,70.49
2019-05-14T05:41:59.920Z,70.27
2019-05-14T05:44:31.774Z,69.95
2019-05-14T05:47:03.728Z,69.69
2019-05-14T05:49:35.290Z,69.31
2019-05-14T05:52:08.559Z,68.03
2019-05-14T05:54:40.138Z,66.27
2019-05-14T05:57:11.997Z,65.63
2019-05-14T05:59:43.981Z,68.20
2019-05-14T06:02:18.374Z,69.04
2019-05-14T06:04:52.786Z,68.99
2019-05-14T06:07:24.237Z,68.56
2019-05-14T06:09:56.101Z,67.71
2019-05-14T06:12:29.585Z,66.12
2019-05-14T06:15:00.741Z,66.49
2019-05-14T06:17:32.388Z,66.40
2019-05-14T06:20:05.506Z,64.39
2019-05-14T06:22:38.459Z,64.86
2019-05-14T06:25:11.773Z,65.39
2019-05-14T06:27:43.519Z,64.20
2019-05-14T06:30:18.449Z,63.61
2019-05-14T06:32:50.214Z,65.92
2019-05-14T06:35:21.672Z,67.11
2019-05-14T06:37:53.438Z,66.21
2019-05-14T06:40:25.072Z,65.90
2019-05-14T06:42:59.157Z,63.99
2019-05-14T06:45:30.435Z,64.45
2019-05-14T06:48:02.498Z,65.01
2019-05-14T06:50:34.154Z,66.01
2019-05-14T06:53:08.377Z,64.23
2019-05-14T06:55:39.617Z,64.82
2019-05-14T06:58:11.466Z,64.20
2019-05-14T07:00:43.233Z,62.93
2019-05-14T07:03:15.086Z,62.79
2019-05-14T07:05:49.125Z,64.64
2019-05-14T07:08:21.058Z,63.69
2019-05-14T07:10:52.815Z,62.23
2019-05-14T07:13:24.677Z,62.36
2019-05-14T07:15:58.429Z,62.94
2019-05-14T07:18:45.210Z,62.94
2019-05-14T07:21:03.121Z,61.09
2019-05-14T07:23:34.877Z,62.62
2019-05-14T07:26:08.444Z,62.95
2019-05-14T07:28:42.468Z,62.50
2019-05-14T07:31:12.918Z,61.94
2019-05-14T07:33:44.568Z,61.61
2019-05-14T07:36:18.661Z,62.41
2019-05-14T07:38:49.543Z,61.66
2019-05-14T07:41:20.985Z,61.86
2019-05-14T07:43:52.627Z,64.01
2019-05-14T07:46:24.077Z,61.71
2019-05-14T07:49:05.425Z,60.69
2019-05-14T07:51:29.138Z,60.99
2019-05-14T07:54:00.895Z,60.18
2019-05-14T07:56:32.437Z,59.60
2019-05-14T07:59:04.503Z,59.16
2019-05-14T08:01:38.648Z,58.66
2019-05-14T08:04:11.598Z,59.22
2019-05-14T08:06:43.459Z,58.88
2019-05-14T08:09:15.216Z,60.07
2019-05-14T08:11:48.077Z,58.95
2019-05-14T08:14:20.685Z,57.99
2019-05-14T08:16:52.552Z,59.75
2019-05-14T08:19:27.219Z,59.19
2019-05-14T08:21:58.652Z,58.99
2019-05-14T08:24:32.123Z,58.92
2019-05-14T08:27:03.769Z,58.63
2019-05-14T08:29:37.526Z,58.25
2019-05-14T08:32:09.528Z,57.43
2019-05-14T08:34:41.086Z,57.61
2019-05-14T08:37:12.630Z,55.46
2019-05-14T08:39:44.188Z,56.73
2019-05-14T08:42:18.562Z,56.59
2019-05-14T08:44:51.442Z,57.26
2019-05-14T08:47:23.142Z,54.08
2019-05-14T08:49:54.491Z,54.41
2019-05-14T08:52:28.811Z,54.12
2019-05-14T08:55:10.882Z,54.94
2019-05-14T08:57:34.293Z,54.12
2019-05-14T09:00:13.781Z,53.90
2019-05-14T09:02:42.303Z,53.18
2019-05-14T09:05:14.255Z,52.47
2019-05-14T09:07:45.705Z,50.16
2019-05-14T09:10:19.357Z,49.38
2019-05-14T09:12:50.653Z,51.06
2019-05-14T09:15:22.211Z,51.37
2019-05-14T09:17:53.964Z,49.60
2019-05-14T09:20:25.821Z,49.15
2019-05-14T09:22:59.493Z,49.41
2019-05-14T09:25:30.992Z,49.88
2019-05-14T09:28:02.836Z,49.23
2019-05-14T09:30:34.794Z,49.74
2019-05-14T09:33:08.635Z,48.06
2019-05-14T09:35:39.392Z,49.09
2019-05-14T09:38:11.402Z,49.94
2019-05-14T09:40:43.056Z,50.25
2019-05-14T09:43:14.813Z,50.25
2019-05-14T09:45:48.154Z,51.68
2019-05-14T09:48:20.168Z,52.71
2019-05-14T09:50:51.827Z,53.43
2019-05-14T09:53:23.884Z,53.12
2019-05-14T09:55:55.334Z,52.13
2019-05-14T09:58:28.202Z,52.53
2019-05-14T10:01:00.281Z,53.10
2019-05-14T10:03:31.839Z,51.42
2019-05-14T10:06:03.698Z,51.06
2019-05-14T10:08:35.364Z,51.90
2019-05-14T10:11:07.079Z,51.37
2019-05-14T10:13:39.503Z,51.67
2019-05-14T10:16:11.032Z,50.51
2019-05-14T10:18:42.808Z,50.28
2019-05-14T10:21:14.656Z,50.00
2019-05-14T10:23:47.533Z,49.50
2019-05-14T10:26:20.115Z,50.23
2019-05-14T10:28:51.968Z,50.53
2019-05-14T10:31:23.833Z,49.96
2019-05-14T10:33:55.282Z,49.78
2019-05-14T10:36:29.822Z,49.77
2019-05-14T10:39:00.446Z,50.48
2019-05-14T10:41:34.072Z,50.59
2019-05-14T10:44:09.057Z,50.00
2019-05-14T10:46:39.498Z,50.59
2019-05-14T10:49:19.430Z,51.27
2019-05-14T10:51:44.648Z,50.37
2019-05-14T10:54:24.305Z,50.94
2019-05-14T10:56:49.716Z,50.61
2019-05-14T10:59:21.680Z,50.71
2019-05-14T11:01:53.833Z,49.25
2019-05-14T11:04:28.411Z,49.03
2019-05-14T11:06:59.804Z,49.10
2019-05-14T11:09:31.355Z,48.88
2019-05-14T11:12:03.006Z,48.93
2019-05-14T11:14:34.765Z,48.91
2019-05-14T11:17:11.403Z,50.12
2019-05-14T11:19:39.812Z,48.34
2019-05-14T11:22:11.572Z,47.19
2019-05-14T11:24:43.566Z,48.09
2019-05-14T11:27:15.190Z,48.52
2019-05-14T11:29:49.013Z,47.67
2019-05-14T11:32:20.138Z,47.30
2019-05-14T11:34:52.825Z,47.66
2019-05-14T11:37:24.466Z,46.87
2019-05-14T11:39:58.095Z,47.72
2019-05-14T11:42:31.532Z,48.55
2019-05-14T11:45:04.153Z,49.52
2019-05-14T11:47:38.036Z,49.63
2019-05-14T11:50:10.415Z,49.78
2019-05-14T11:52:42.418Z,49.80
2019-05-14T11:55:14.245Z,50.87
2019-05-14T11:57:45.694Z,51.12
2019-05-14T12:00:19.585Z,51.97
2019-05-14T12:02:51.629Z,51.20
2019-05-14T12:05:23.324Z,50.71
2019-05-14T12:07:55.805Z,50.89
2019-05-14T12:10:29.273Z,52.58
2019-05-14T12:13:00.954Z,52.41
2019-05-14T12:15:33.849Z,52.02
2019-05-14T12:18:05.594Z,51.90
2019-05-14T12:20:39.639Z,51.21
2019-05-14T12:23:11.057Z,51.81
2019-05-14T12:25:42.608Z,51.46
2019-05-14T12:28:14.162Z,51.18
2019-05-14T12:30:48.735Z,50.94
2019-05-14T12:33:19.851Z,51.98
2019-05-14T12:35:51.543Z,48.19
2019-05-14T12:38:23.240Z,48.51
2019-05-14T12:40:54.786Z,49.35
2019-05-14T12:43:28.360Z,50.95
2019-05-14T12:45:59.794Z,47.92
2019-05-14T12:48:31.387Z,48.26
2019-05-14T12:51:03.259Z,47.03
2019-05-14T12:53:35.216Z,48.04
2019-05-14T12:56:08.535Z,49.80
2019-05-14T12:58:45.320Z,50.62
2019-05-14T13:01:14.947Z,51.44
2019-05-14T13:03:48.504Z,49.95
2019-05-14T13:06:20.049Z,49.07
2019-05-14T13:08:51.888Z,49.50
2019-05-14T13:11:23.668Z,49.06
2019-05-14T13:13:58.324Z,50.01
2019-05-14T13:16:29.332Z,49.58
2019-05-14T13:19:01.102Z,49.85
2019-05-14T13:21:32.836Z,50.14
2019-05-14T13:24:04.287Z,50.16
2019-05-14T13:26:38.833Z,49.26
2019-05-14T13:29:10.874Z,49.25
2019-05-14T13:31:42.526Z,48.75
2019-05-14T13:34:14.086Z,49.82
2019-05-14T13:36:48.680Z,50.51
2019-05-14T13:39:19.513Z,50.93
2019-05-14T13:41:51.301Z,51.79
2019-05-14T13:44:25.105Z,51.76
2019-05-14T13:46:56.040Z,50.50
2019-05-14T13:49:29.380Z,50.09
2019-05-14T13:52:01.454Z,50.16
2019-05-14T13:54:33.053Z,50.05
2019-05-14T13:57:05.529Z,50.48
2019-05-14T13:59:43.881Z,50.69
2019-05-14T14:02:10.799Z,50.56
2019-05-14T14:04:42.539Z,48.43
2019-05-14T14:07:14.474Z,50.10
2019-05-14T14:09:46.182Z,50.94
2019-05-14T14:12:18.122Z,51.06
2019-05-14T14:14:49.982Z,50.30
2019-05-14T14:17:21.643Z,48.80
2019-05-14T14:19:53.496Z,48.52
2019-05-14T14:22:25.258Z,48.97
2019-05-14T14:24:59.214Z,49.57
2019-05-14T14:27:30.527Z,49.83
2019-05-14T14:30:02.273Z,49.96
2019-05-14T14:32:34.129Z,50.14
2019-05-14T14:35:08.768Z,49.53
2019-05-14T14:37:40.817Z,50.25
2019-05-14T14:40:12.884Z,51.07
2019-05-14T14:42:44.533Z,50.38
2019-05-14T14:45:16.487Z,49.91
2019-05-14T14:47:49.709Z,50.13
2019-05-14T14:50:21.342Z,49.20
2019-05-14T14:52:53.622Z,50.09
2019-05-14T14:55:25.264Z,50.11
2019-05-14T14:57:56.941Z,49.95
2019-05-14T15:00:29.481Z,49.58
2019-05-14T15:03:01.571Z,49.58
2019-05-14T15:05:33.225Z,49.50
2019-05-14T15:08:05.185Z,49.71
2019-05-14T15:10:39.252Z,49.30
2019-05-14T15:13:10.123Z,49.20
2019-05-14T15:15:41.986Z,47.67
2019-05-14T15:18:14.199Z,48.25
2019-05-14T15:20:48.644Z,48.53
2019-05-14T15:23:19.570Z,49.08
2019-05-14T15:25:51.273Z,49.20
2019-05-14T15:28:23.034Z,48.93
2019-05-14T15:30:54.886Z,49.56
2019-05-14T15:33:29.254Z,50.33
2019-05-14T15:35:59.840Z,49.86
2019-05-14T15:38:31.597Z,50.57
2019-05-14T15:41:03.257Z,50.09
2019-05-14T15:43:35.412Z,50.22
2019-05-14T15:46:08.713Z,50.65
2019-05-14T15:48:40.574Z,50.49
2019-05-14T15:51:15.176Z,50.38
2019-05-14T15:54:03.147Z,50.43
2019-05-14T15:56:19.323Z,49.80
2019-05-14T15:58:50.972Z,50.31
2019-05-14T16:01:23.279Z,50.45
2019-05-14T16:03:55.108Z,49.97
2019-05-14T16:06:26.554Z,50.43
2019-05-14T16:08:59.027Z,50.88
2019-05-14T16:11:30.574Z,50.93
2019-05-14T16:14:02.038Z,51.17
2019-05-14T16:16:33.691Z,51.27
2019-05-14T16:19:05.339Z,51.32
2019-05-14T16:21:38.526Z,51.45
2019-05-14T16:24:10.188Z,51.89
2019-05-14T16:26:42.044Z,51.76
2019-05-14T16:29:13.600Z,52.75
2019-05-14T16:31:45.472Z,53.20
2019-05-14T16:34:18.345Z,53.67
2019-05-14T16:36:50.206Z,53.35
2019-05-14T16:39:21.865Z,52.99
2019-05-14T16:41:53.509Z,53.50
2019-05-14T16:44:24.964Z,53.15
2019-05-14T16:46:58.678Z,53.57
2019-05-14T16:49:30.161Z,53.44
2019-05-14T16:52:03.143Z,53.98
2019-05-14T16:54:34.858Z,54.03
2019-05-14T16:57:10.948Z,54.57
2019-05-14T16:59:41.241Z,54.85
2019-05-14T17:02:13.406Z,55.31
2019-05-14T17:04:44.961Z,55.62
2019-05-14T17:07:18.283Z,56.04
2019-05-14T17:09:49.804Z,55.65
2019-05-14T17:12:23.072Z,56.54
2019-05-14T17:14:58.538Z,56.42
2019-05-14T17:17:28.991Z,56.80
2019-05-14T17:20:00.572Z,57.47
2019-05-14T17:22:33.616Z,57.41
2019-05-14T17:25:05.810Z,57.22
2019-05-14T17:27:39.456Z,56.57
2019-05-14T17:30:10.834Z,56.78
2019-05-14T17:32:42.392Z,57.02
2019-05-14T17:35:14.037Z,56.96
2019-05-14T17:37:48.376Z,57.20
2019-05-14T17:40:20.358Z,57.15
2019-05-14T17:42:51.872Z,57.60
2019-05-14T17:45:23.626Z,57.26
2019-05-14T17:47:55.589Z,56.85
2019-05-14T17:50:29.205Z,56.94
2019-05-14T17:53:00.875Z,56.50
2019-05-14T17:55:44.574Z,56.48
2019-05-14T17:58:12.842Z,56.79
2019-05-14T18:00:39.605Z,56.56
2019-05-14T18:03:13.857Z,56.46
2019-05-14T18:05:47.228Z,56.71
2019-05-14T18:08:19.482Z,57.34
2019-05-14T18:10:52.154Z,56.53
2019-05-14T18:13:23.913Z,57.12
2019-05-14T18:15:58.101Z,57.34
2019-05-14T18:18:29.685Z,57.36
2019-05-14T18:21:01.866Z,57.67
2019-05-14T18:23:33.510Z,58.12
2019-05-14T18:26:08.884Z,58.46
2019-05-14T18:28:40.184Z,58.98
2019-05-14T18:31:12.157Z,59.35
2019-05-14T18:33:44.032Z,59.97
2019-05-14T18:36:15.819Z,60.88
2019-05-14T18:38:49.342Z,61.64
2019-05-14T18:41:21.022Z,62.50
2019-05-14T18:43:52.673Z,62.72
2019-05-14T18:46:24.122Z,62.99
2019-05-14T18:48:59.004Z,63.21
2019-05-14T18:51:29.589Z,63.37
2019-05-14T18:54:01.795Z,63.28
2019-05-14T18:56:34.894Z,63.24
2019-05-14T18:59:08.940Z,63.26
2019-05-14T19:01:40.579Z,63.25
2019-05-14T19:04:12.271Z,63.38
2019-05-14T19:06:43.927Z,63.59
2019-05-14T19:09:15.685Z,63.54
2019-05-14T19:11:48.251Z,63.80
2019-05-14T19:14:21.893Z,66.78
2019-05-14T19:16:53.841Z,66.00
2019-05-14T19:19:25.675Z,65.36
2019-05-14T19:21:58.392Z,65.84
2019-05-14T19:24:30.037Z,65.86
2019-05-14T19:27:01.767Z,65.97
2019-05-14T19:29:33.637Z,65.79
2019-05-14T19:32:05.533Z,65.07
2019-05-14T19:34:38.171Z,64.69
2019-05-14T19:37:10.023Z,64.53
2019-05-14T19:39:41.724Z,64.84
2019-05-14T19:42:13.959Z,64.80
2019-05-14T19:44:45.399Z,64.79
2019-05-14T19:47:18.673Z,64.91
2019-05-14T19:49:50.249Z,65.66
2019-05-14T19:52:22.412Z,65.86
2019-05-14T19:54:54.071Z,66.14
2019-05-14T19:57:25.830Z,66.30
2019-05-14T19:59:57.795Z,66.21
2019-05-14T20:02:30.098Z,66.48
2019-05-14T20:05:05.363Z,66.56
2019-05-14T20:07:35.105Z,66.23
2019-05-14T20:10:08.872Z,66.47
2019-05-14T20:12:40.463Z,66.07
2019-05-14T20:15:12.119Z,66.10
2019-05-14T20:17:43.575Z,66.12
2019-05-14T20:20:15.438Z,66.35
2019-05-14T20:22:49.828Z,66.57
2019-05-14T20:25:20.169Z,66.67
2019-05-14T20:27:52.039Z,67.31
2019-05-14T20:30:23.898Z,67.58
2019-05-14T20:32:55.560Z,67.67
2019-05-14T20:35:34.299Z,67.23
2019-05-14T20:38:00.397Z,67.04
2019-05-14T20:40:32.053Z,67.09
2019-05-14T20:43:03.904Z,67.41
2019-05-14T20:45:35.876Z,67.73
2019-05-14T20:48:08.911Z,68.22
2019-05-14T20:50:40.409Z,68.58
2019-05-14T20:53:11.454Z,68.85
2019-05-14T20:55:43.619Z,69.94
2019-05-14T20:58:15.376Z,70.92
2019-05-14T21:00:48.490Z,71.46
2019-05-14T21:03:20.421Z,72.33
2019-05-14T21:05:51.978Z,72.55
2019-05-14T21:08:23.529Z,71.61
2019-05-14T21:10:55.229Z,71.80
2019-05-14T21:13:27.824Z,72.92
2019-05-14T21:15:59.621Z,73.35
2019-05-14T21:18:35.191Z,72.63
2019-05-14T21:21:05.288Z,71.82
2019-05-14T21:23:38.228Z,72.06
2019-05-14T21:26:09.826Z,72.38
2019-05-14T21:28:41.689Z,72.38
2019-05-14T21:31:13.351Z,72.65
2019-05-14T21:33:45.200Z,72.79
2019-05-14T21:36:19.415Z,72.91
2019-05-14T21:38:50.045Z,72.46
2019-05-14T21:41:21.706Z,72.62
2019-05-14T21:43:53.358Z,72.91
2019-05-14T21:46:24.116Z,72.84
2019-05-14T21:48:55.337Z,73.24
2019-05-14T21:51:28.409Z,73.54
2019-05-14T21:54:00.384Z,73.32
2019-05-14T21:56:31.952Z,73.23
2019-05-14T21:59:03.695Z,73.47
2019-05-14T22:01:36.135Z,73.28
2019-05-14T22:04:11.165Z,72.60
2019-05-14T22:06:41.609Z,72.68
2019-05-14T22:09:13.283Z,73.16
2019-05-14T22:11:45.039Z,72.91
2019-05-14T22:14:18.768Z,73.85
2019-05-14T22:16:50.294Z,74.47
2019-05-14T22:19:22.051Z,75.10
2019-05-14T22:21:53.913Z,75.71
2019-05-14T22:24:25.667Z,75.75
2019-05-14T22:26:58.167Z,75.11
2019-05-14T22:29:29.081Z,74.45
2019-05-14T22:32:00.838Z,74.43
2019-05-14T22:34:32.499Z,75.03
2019-05-14T22:37:04.047Z,75.04
2019-05-14T22:39:36.009Z,75.66
2019-05-14T22:42:09.243Z,76.21
2019-05-14T22:44:40.954Z,76.25
2019-05-14T22:47:12.713Z,76.54
2019-05-14T22:49:44.162Z,76.61
2019-05-14T22:52:16.172Z,76.01
2019-05-14T22:54:49.091Z,75.50
2019-05-14T22:57:20.667Z,75.08
2019-05-14T22:59:52.313Z,75.62
2019-05-14T23:02:24.486Z,76.21
2019-05-14T23:04:55.833Z,77.00
2019-05-14T23:07:26.494Z,77.35
2019-05-14T23:09:59.056Z,76.85
2019-05-14T23:12:30.594Z,77.46
2019-05-14T23:15:02.554Z,77.36
2019-05-14T23:17:33.906Z,77.39
2019-05-14T23:20:08.891Z,77.30
2019-05-14T23:22:40.285Z,77.90
2019-05-14T23:25:11.962Z,78.81
2019-05-14T23:27:44.412Z,79.09
2019-05-14T23:30:17.809Z,75.95
2019-05-14T23:32:49.769Z,76.36
2019-05-14T23:35:21.430Z,76.44
2019-05-14T23:37:53.185Z,77.74
2019-05-14T23:40:25.043Z,77.61
2019-05-14T23:42:58.773Z,78.01
2019-05-14T23:45:31.736Z,77.24
2019-05-14T23:48:03.592Z,77.85
2019-05-14T23:50:37.823Z,77.84
2019-05-14T23:53:09.618Z,78.68
2019-05-14T23:55:41.119Z,78.87
2019-05-14T23:58:12.974Z,78.96
